DPL weather

Dipolog Airport
Dipolog City, Zamboanga del Norte Province, Philippines

Public forecast

Using degrees Celsius for public forecast. Weather courtesy of forecast.io.

Closest aviation weather report (METAR) to Dipolog Airport

Report is more than 2 hours old.

Closest report is Sibulan Airport, 44.0 nm (81.5 km) N. Retrieved 2020/06/02 09:00 UTC (2 hours ago):

RPVD 020900Z 14004KT 9999 FEW015 BKN220 30/26 Q1009 RMK A2980

Closest aviation forecast (TAF) to Dipolog Airport

Closest forecast is Sibulan Airport, 44.0 nm (81.5 km) N. Retrieved 2020/06/02 06:00 UTC (5 hours ago):

TAF RPVD 020500Z 0206/0306 07006KT 9999 FEW015 SCT070 BKN220 TEMPO 0206/0212 04010KT -SHRA FEW014CB SCT015 BKN070